Un Marmara — TCCU8 — position and weather

sailwx.info

Track history (hours):
 
Tides and Currents Weather Stations Pressure Air Temp Water Temp Dewpoint Dewpoint Depression Visibility Wind Speed Wind Dir Waves Ship Positions

Un Marmara

Last reported at 2017-Sep-20 13:13 UTC. Time now 2017-Sep-22 22:43 UTC.
Position N 39°49' E 025°50'.

Length 193 m; draft 6.8 m.

Type: Ship (hazmat cat A). MMSI: 271000748.

Date/timePositionNaut miles runAvg speedWind from/ knotsBaromVisibWave heightAir tempDewpointWater temp
2017-Sep-20 13:13N 39°49' E 025°50'719.2
2017-Sep-20 12:51N 39°55' E 025°55'9816.7
2017-Sep-20 06:59N 40°46' E 027°44'45 5.7
2017-Sep-19 23:10N 40°58' E 028°41'1 5.2
2017-Sep-19 22:55N 40°56' E 028°42'717.2
2017-Sep-19 22:30N 40°52' E 028°48'16 0.5
2017-Sep-18 12:55N 40°49' E 029°10'14117.1
2017-Sep-18 04:40N 40°02' E 026°15'214.3
2017-Sep-18 04:30N 40°01' E 026°12'917.8
2017-Sep-18 04:00N 39°59' E 026°00'918.2
2017-Sep-18 03:29N 39°53' E 025°51'919.4
2017-Sep-18 03:00N 39°44' E 025°47'2919.7
2017-Sep-18 01:33N 39°18' E 025°31'119.7
2017-Sep-18 01:30N 39°17' E 025°30'1019.7
2017-Sep-18 01:00N 39°09' E 025°25'1119.9
2017-Sep-18 00:29N 38°60' E 025°18'920.0
2017-Sep-18 00:00N 38°51' E 025°13'1020.0
2017-Sep-17 23:29N 38°42' E 025°07'1019.9
2017-Sep-17 23:00N 38°33' E 025°02'1020.0
2017-Sep-17 22:30N 38°24' E 024°56'1419.9
2017-Sep-17 21:49N 38°12' E 024°48'620.0
2017-Sep-17 21:30N 38°07' E 024°44'4920.2
2017-Sep-17 19:05N 37°23' E 024°16'220.2
2017-Sep-17 19:00N 37°22' E 024°15'1020.0
2017-Sep-17 18:30N 37°14' E 024°07'1019.8
2017-Sep-17 18:00N 37°07' E 023°59'1019.8
2017-Sep-17 17:30N 36°59' E 023°51'1020.1
2017-Sep-17 16:59N 36°50' E 023°44'1020.0
2017-Sep-17 16:30N 36°43' E 023°36'1420.2
2017-Sep-17 15:48N 36°33' E 023°23'6618.2
2017-Sep-17 12:09N 36°33' E 022°01'921.2
2017-Sep-17 11:42N 36°38' E 021°50'1420.5
2017-Sep-17 11:02N 36°46' E 021°36'019.8
2017-Sep-17 11:00N 36°46' E 021°36'1020.4
2017-Sep-17 10:30N 36°54' E 021°28'1220.2
2017-Sep-17 09:56N 37°03' E 021°19'1020.0
2017-Sep-17 09:25N 37°11' E 021°11'1020.2
2017-Sep-17 08:55N 37°19' E 021°03'920.3
2017-Sep-17 08:28N 37°26' E 020°56'919.9
2017-Sep-17 08:00N 37°33' E 020°48'1019.5
2017-Sep-17 07:31N 37°41' E 020°41'1019.9
2017-Sep-17 07:00N 37°49' E 020°33'1020.0
2017-Sep-17 06:30N 37°57' E 020°26'1020.1
2017-Sep-17 06:00N 38°06' E 020°20'1020.0
2017-Sep-17 05:30N 38°14' E 020°13'1019.6
2017-Sep-17 04:59N 38°23' E 020°06'1019.6
2017-Sep-17 04:28N 38°31' E 019°59'919.5
2017-Sep-17 04:00N 38°39' E 019°53'1019.5
2017-Sep-17 03:30N 38°47' E 019°46'1019.6
2017-Sep-17 03:00N 38°56' E 019°39'1219.7
2017-Sep-17 02:25N 39°05' E 019°32'819.8
2017-Sep-17 02:00N 39°12' E 019°26'1019.9
2017-Sep-17 01:30N 39°21' E 019°19'1019.7
2017-Sep-17 01:00N 39°29' E 019°12'1019.3
2017-Sep-17 00:30N 39°37' E 019°06'1019.2
2017-Sep-17 00:00N 39°45' E 018°59'1019.5
2017-Sep-16 23:30N 39°54' E 018°52'1019.6
2017-Sep-16 23:00N 40°02' E 018°45'1019.3
2017-Sep-16 22:30N 40°10' E 018°39'1019.4
2017-Sep-16 22:00N 40°18' E 018°32'1119.4
2017-Sep-16 21:27N 40°27' E 018°24'919.5
2017-Sep-16 21:00N 40°34' E 018°17'1019.9
2017-Sep-16 20:30N 40°42' E 018°08'1019.7
2017-Sep-16 20:00N 40°48' E 017°58'2019.5
2017-Sep-16 18:59N 41°01' E 017°38'24019.4
2017-Sep-16 06:38N 44°02' E 014°05'319.8
2017-Sep-16 06:30N 44°04' E 014°03'1019.7
2017-Sep-16 06:00N 44°13' E 013°55'1019.5
2017-Sep-16 05:30N 44°21' E 013°48'1019.1
2017-Sep-16 05:00N 44°29' E 013°41'918.7
2017-Sep-16 04:30N 44°37' E 013°34'918.7
2017-Sep-16 04:00N 44°45' E 013°27'918.8
2017-Sep-16 03:30N 44°53' E 013°20'918.8
2017-Sep-16 03:00N 45°01' E 013°13'918.6
2017-Sep-16 02:30N 45°09' E 013°06'918.5
2017-Sep-16 02:00N 45°18' E 013°03'917.2
2017-Sep-16 01:30N 45°25' E 013°09'1019.1
2017-Sep-16 01:00N 45°32' E 013°18'918.9
2017-Sep-16 00:30N 45°36' E 013°30'918.6
2017-Sep-16 00:00N 45°39' E 013°43'1 2.8
2017-Sep-15 23:29N 45°39' E 013°45'0 0.0
2017-Sep-15 22:59N 45°39' E 013°45'0 0.0
2017-Sep-15 22:31N 45°39' E 013°45'0 0.0
2017-Sep-15 22:01N 45°39' E 013°45'0 0.0
2017-Sep-15 21:30N 45°39' E 013°45'0 0.0
2017-Sep-15 21:00N 45°39' E 013°45'0 0.0
2017-Sep-15 20:30N 45°39' E 013°45'0 0.0
2017-Sep-15 20:01N 45°39' E 013°45'0 0.0
2017-Sep-15 19:31N 45°39' E 013°45'0 0.0
2017-Sep-15 19:00N 45°39' E 013°45'0 0.0
2017-Sep-15 18:31N 45°39' E 013°45'0 0.0
2017-Sep-15 18:00N 45°39' E 013°45'0 0.0
2017-Sep-15 17:30N 45°39' E 013°45'0 0.0
2017-Sep-15 17:00N 45°39' E 013°45'0 0.0
2017-Sep-15 16:30N 45°39' E 013°45'0 0.0
2017-Sep-15 16:01N 45°39' E 013°45'0 0.0
2017-Sep-15 15:30N 45°39' E 013°45'0 0.0
2017-Sep-15 15:00N 45°39' E 013°45'1 1.1
2017-Sep-15 14:30N 45°39' E 013°45'510.0
2017-Sep-15 14:00N 45°38' E 013°38'714.9
2017-Sep-15 13:31N 45°34' E 013°29'918.1
2017-Sep-15 13:00N 45°28' E 013°19'917.9
2017-Sep-15 12:31N 45°20' E 013°13'33619.3
2017-Sep-14 19:04N 41°07' E 018°16'219.3
2017-Sep-14 18:57N 41°05' E 018°18'35415.3
2017-Sep-13 19:52N 37°09' E 023°58'719.6
2017-Sep-13 19:30N 37°14' E 024°04'18419.1
2017-Sep-13 09:53N 39°56' E 025°55'718.1
2017-Sep-13 09:29N 40°01' E 026°02'13610.9
2017-Sep-12 21:00N 40°52' E 028°48'1019.3
2017-Sep-12 20:30N 40°50' E 029°00'918.5
2017-Sep-12 20:00N 40°51' E 029°13'3 5.6
2017-Sep-12 19:30N 40°51' E 029°16'0 0.0
2017-Sep-12 19:00N 40°51' E 029°16'0 0.0
2017-Sep-12 18:30N 40°51' E 029°16'0 0.0
2017-Sep-12 18:00N 40°51' E 029°16'0 0.0
2017-Sep-12 17:30N 40°51' E 029°16'0 0.0
2017-Sep-12 17:00N 40°51' E 029°16'0 0.0
2017-Sep-12 16:30N 40°51' E 029°16'0 0.0
2017-Sep-12 16:00N 40°51' E 029°16'0 0.0
2017-Sep-12 15:30N 40°51' E 029°16'0 0.0
2017-Sep-12 14:59N 40°51' E 029°16'0 0.0
2017-Sep-12 14:30N 40°51' E 029°16'0 0.0
2017-Sep-12 14:00N 40°51' E 029°16'0 0.0
2017-Sep-12 13:30N 40°51' E 029°16'0 0.0
2017-Sep-12 13:00N 40°51' E 029°16'0 0.0
2017-Sep-12 12:30N 40°51' E 029°16'0 0.0
2017-Sep-12 11:59N 40°51' E 029°16'0 0.0
2017-Sep-12 11:30N 40°51' E 029°16'0 0.0
2017-Sep-12 11:00N 40°51' E 029°16'0 0.0
2017-Sep-12 10:30N 40°51' E 029°16'0 0.0
2017-Sep-12 10:00N 40°51' E 029°16'0 0.0
2017-Sep-12 09:30N 40°51' E 029°16'0 0.0
2017-Sep-12 09:00N 40°51' E 029°16'0 0.0
2017-Sep-12 08:30N 40°51' E 029°16'0 0.0
2017-Sep-12 08:00N 40°51' E 029°16'0 0.0
2017-Sep-12 07:30N 40°51' E 029°16'0 0.0
2017-Sep-12 07:00N 40°51' E 029°16'0 0.0
2017-Sep-12 06:30N 40°51' E 029°16'0 0.0
2017-Sep-12 06:00N 40°51' E 029°16'0 0.0
2017-Sep-12 05:30N 40°51' E 029°16'0 0.0
2017-Sep-12 05:00N 40°51' E 029°16'0 0.0
2017-Sep-12 04:30N 40°51' E 029°16'0 0.0
2017-Sep-12 04:00N 40°51' E 029°16'0 0.0
2017-Sep-12 03:30N 40°51' E 029°16'0 0.0
2017-Sep-12 03:00N 40°51' E 029°16'0 0.0
2017-Sep-12 02:30N 40°51' E 029°16'0 0.0
2017-Sep-12 02:00N 40°51' E 029°16'0 0.0
2017-Sep-12 01:30N 40°51' E 029°16'0 0.0
2017-Sep-12 01:00N 40°51' E 029°16'0 0.0
2017-Sep-12 00:30N 40°51' E 029°16'0 0.0
2017-Sep-12 00:00N 40°51' E 029°16'0 0.0
2017-Sep-11 23:30N 40°51' E 029°16'0 0.0
2017-Sep-11 23:00N 40°51' E 029°16'0 0.0
2017-Sep-11 22:30N 40°51' E 029°16'0 0.0
2017-Sep-11 22:00N 40°51' E 029°16'0 0.0
2017-Sep-11 21:30N 40°51' E 029°16'0 0.0
2017-Sep-11 21:00N 40°51' E 029°16'0 0.0
2017-Sep-11 20:30N 40°51' E 029°16'0 0.0
2017-Sep-11 20:00N 40°51' E 029°16'0 0.0
2017-Sep-11 19:30N 40°51' E 029°16'0 0.0
2017-Sep-11 19:00N 40°51' E 029°16'0 0.0
2017-Sep-11 18:30N 40°51' E 029°16'0 0.0
2017-Sep-11 18:00N 40°51' E 029°16'0 0.0
2017-Sep-11 17:30N 40°51' E 029°16'0 0.0
2017-Sep-11 17:00N 40°51' E 029°16'0 0.0
2017-Sep-11 16:30N 40°51' E 029°16'0 0.0
2017-Sep-11 16:00N 40°51' E 029°16'0 0.0
2017-Sep-11 15:30N 40°51' E 029°16'0 0.1
2017-Sep-11 15:00N 40°51' E 029°16'3 6.3
2017-Sep-11 14:30N 40°51' E 029°12'917.2
2017-Sep-11 14:00N 40°49' E 029°01'918.5
2017-Sep-11 13:30N 40°50' E 028°49'918.9
2017-Sep-11 13:00N 40°49' E 028°36'1019.2
2017-Sep-11 12:30N 40°48' E 028°24'1019.4
2017-Sep-11 12:00N 40°47' E 028°11'1019.4
2017-Sep-11 11:30N 40°45' E 027°58'918.8
2017-Sep-11 11:00N 40°44' E 027°46'7117.3
2017-Sep-11 06:54N 40°12' E 026°23'3015.0
2017-Sep-11 04:55N 39°52' E 025°54'818.5
2017-Sep-11 04:29N 39°45' E 025°49'19319.4
2017-Sep-10 18:30N 36°56' E 023°49'  
Track history (hours):
 
Tides and Currents Weather Stations Pressure Air Temp Water Temp Dewpoint Dewpoint Depression Visibility Wind Speed Wind Dir Waves Ship Positions

Un Marmara

Last reported at 2017-Sep-20 13:13 UTC. Time now 2017-Sep-22 22:43 UTC.
Position N 39°49' E 025°50'.

Length 193 m; draft 6.8 m.

Type: Ship (hazmat cat A). MMSI: 271000748.

Date/timePositionNaut miles runAvg speedWind from/ knotsBaromVisibWave heightAir tempDewpointWater temp
2017-Sep-20 13:13N 39°49' E 025°50'719.2
2017-Sep-20 12:51N 39°55' E 025°55'9816.7
2017-Sep-20 06:59N 40°46' E 027°44'45 5.7
2017-Sep-19 23:10N 40°58' E 028°41'1 5.2
2017-Sep-19 22:55N 40°56' E 028°42'717.2
2017-Sep-19 22:30N 40°52' E 028°48'16 0.5
2017-Sep-18 12:55N 40°49' E 029°10'14117.1
2017-Sep-18 04:40N 40°02' E 026°15'214.3
2017-Sep-18 04:30N 40°01' E 026°12'917.8
2017-Sep-18 04:00N 39°59' E 026°00'918.2
2017-Sep-18 03:29N 39°53' E 025°51'919.4
2017-Sep-18 03:00N 39°44' E 025°47'2919.7
2017-Sep-18 01:33N 39°18' E 025°31'119.7
2017-Sep-18 01:30N 39°17' E 025°30'1019.7
2017-Sep-18 01:00N 39°09' E 025°25'1119.9
2017-Sep-18 00:29N 38°60' E 025°18'920.0
2017-Sep-18 00:00N 38°51' E 025°13'1020.0
2017-Sep-17 23:29N 38°42' E 025°07'1019.9
2017-Sep-17 23:00N 38°33' E 025°02'1020.0
2017-Sep-17 22:30N 38°24' E 024°56'1419.9
2017-Sep-17 21:49N 38°12' E 024°48'620.0
2017-Sep-17 21:30N 38°07' E 024°44'4920.2
2017-Sep-17 19:05N 37°23' E 024°16'220.2
2017-Sep-17 19:00N 37°22' E 024°15'1020.0
2017-Sep-17 18:30N 37°14' E 024°07'1019.8
2017-Sep-17 18:00N 37°07' E 023°59'1019.8
2017-Sep-17 17:30N 36°59' E 023°51'1020.1
2017-Sep-17 16:59N 36°50' E 023°44'1020.0
2017-Sep-17 16:30N 36°43' E 023°36'1420.2
2017-Sep-17 15:48N 36°33' E 023°23'6618.2
2017-Sep-17 12:09N 36°33' E 022°01'921.2
2017-Sep-17 11:42N 36°38' E 021°50'1420.5
2017-Sep-17 11:02N 36°46' E 021°36'019.8
2017-Sep-17 11:00N 36°46' E 021°36'1020.4
2017-Sep-17 10:30N 36°54' E 021°28'1220.2
2017-Sep-17 09:56N 37°03' E 021°19'1020.0
2017-Sep-17 09:25N 37°11' E 021°11'1020.2
2017-Sep-17 08:55N 37°19' E 021°03'920.3
2017-Sep-17 08:28N 37°26' E 020°56'919.9
2017-Sep-17 08:00N 37°33' E 020°48'1019.5
2017-Sep-17 07:31N 37°41' E 020°41'1019.9
2017-Sep-17 07:00N 37°49' E 020°33'1020.0
2017-Sep-17 06:30N 37°57' E 020°26'1020.1
2017-Sep-17 06:00N 38°06' E 020°20'1020.0
2017-Sep-17 05:30N 38°14' E 020°13'1019.6
2017-Sep-17 04:59N 38°23' E 020°06'1019.6
2017-Sep-17 04:28N 38°31' E 019°59'919.5
2017-Sep-17 04:00N 38°39' E 019°53'1019.5
2017-Sep-17 03:30N 38°47' E 019°46'1019.6
2017-Sep-17 03:00N 38°56' E 019°39'1219.7
2017-Sep-17 02:25N 39°05' E 019°32'819.8
2017-Sep-17 02:00N 39°12' E 019°26'1019.9
2017-Sep-17 01:30N 39°21' E 019°19'1019.7
2017-Sep-17 01:00N 39°29' E 019°12'1019.3
2017-Sep-17 00:30N 39°37' E 019°06'1019.2
2017-Sep-17 00:00N 39°45' E 018°59'1019.5
2017-Sep-16 23:30N 39°54' E 018°52'1019.6
2017-Sep-16 23:00N 40°02' E 018°45'1019.3
2017-Sep-16 22:30N 40°10' E 018°39'1019.4
2017-Sep-16 22:00N 40°18' E 018°32'1119.4
2017-Sep-16 21:27N 40°27' E 018°24'919.5
2017-Sep-16 21:00N 40°34' E 018°17'1019.9
2017-Sep-16 20:30N 40°42' E 018°08'1019.7
2017-Sep-16 20:00N 40°48' E 017°58'2019.5
2017-Sep-16 18:59N 41°01' E 017°38'24019.4
2017-Sep-16 06:38N 44°02' E 014°05'319.8
2017-Sep-16 06:30N 44°04' E 014°03'1019.7
2017-Sep-16 06:00N 44°13' E 013°55'1019.5
2017-Sep-16 05:30N 44°21' E 013°48'1019.1
2017-Sep-16 05:00N 44°29' E 013°41'918.7
2017-Sep-16 04:30N 44°37' E 013°34'918.7
2017-Sep-16 04:00N 44°45' E 013°27'918.8
2017-Sep-16 03:30N 44°53' E 013°20'918.8
2017-Sep-16 03:00N 45°01' E 013°13'918.6
2017-Sep-16 02:30N 45°09' E 013°06'918.5
2017-Sep-16 02:00N 45°18' E 013°03'917.2
2017-Sep-16 01:30N 45°25' E 013°09'1019.1
2017-Sep-16 01:00N 45°32' E 013°18'918.9
2017-Sep-16 00:30N 45°36' E 013°30'918.6
2017-Sep-16 00:00N 45°39' E 013°43'1 2.8
2017-Sep-15 23:29N 45°39' E 013°45'0 0.0
2017-Sep-15 22:59N 45°39' E 013°45'0 0.0
2017-Sep-15 22:31N 45°39' E 013°45'0 0.0
2017-Sep-15 22:01N 45°39' E 013°45'0 0.0
2017-Sep-15 21:30N 45°39' E 013°45'0 0.0
2017-Sep-15 21:00N 45°39' E 013°45'0 0.0
2017-Sep-15 20:30N 45°39' E 013°45'0 0.0
2017-Sep-15 20:01N 45°39' E 013°45'0 0.0
2017-Sep-15 19:31N 45°39' E 013°45'0 0.0
2017-Sep-15 19:00N 45°39' E 013°45'0 0.0
2017-Sep-15 18:31N 45°39' E 013°45'0 0.0
2017-Sep-15 18:00N 45°39' E 013°45'0 0.0
2017-Sep-15 17:30N 45°39' E 013°45'0 0.0
2017-Sep-15 17:00N 45°39' E 013°45'0 0.0
2017-Sep-15 16:30N 45°39' E 013°45'0 0.0
2017-Sep-15 16:01N 45°39' E 013°45'0 0.0
2017-Sep-15 15:30N 45°39' E 013°45'0 0.0
2017-Sep-15 15:00N 45°39' E 013°45'1 1.1
2017-Sep-15 14:30N 45°39' E 013°45'510.0
2017-Sep-15 14:00N 45°38' E 013°38'714.9
2017-Sep-15 13:31N 45°34' E 013°29'918.1
2017-Sep-15 13:00N 45°28' E 013°19'917.9
2017-Sep-15 12:31N 45°20' E 013°13'33619.3
2017-Sep-14 19:04N 41°07' E 018°16'219.3
2017-Sep-14 18:57N 41°05' E 018°18'35415.3
2017-Sep-13 19:52N 37°09' E 023°58'719.6
2017-Sep-13 19:30N 37°14' E 024°04'18419.1
2017-Sep-13 09:53N 39°56' E 025°55'718.1
2017-Sep-13 09:29N 40°01' E 026°02'13610.9
2017-Sep-12 21:00N 40°52' E 028°48'1019.3
2017-Sep-12 20:30N 40°50' E 029°00'918.5
2017-Sep-12 20:00N 40°51' E 029°13'3 5.6
2017-Sep-12 19:30N 40°51' E 029°16'0 0.0
2017-Sep-12 19:00N 40°51' E 029°16'0 0.0
2017-Sep-12 18:30N 40°51' E 029°16'0 0.0
2017-Sep-12 18:00N 40°51' E 029°16'0 0.0
2017-Sep-12 17:30N 40°51' E 029°16'0 0.0
2017-Sep-12 17:00N 40°51' E 029°16'0 0.0
2017-Sep-12 16:30N 40°51' E 029°16'0 0.0
2017-Sep-12 16:00N 40°51' E 029°16'0 0.0
2017-Sep-12 15:30N 40°51' E 029°16'0 0.0
2017-Sep-12 14:59N 40°51' E 029°16'0 0.0
2017-Sep-12 14:30N 40°51' E 029°16'0 0.0
2017-Sep-12 14:00N 40°51' E 029°16'0 0.0
2017-Sep-12 13:30N 40°51' E 029°16'0 0.0
2017-Sep-12 13:00N 40°51' E 029°16'0 0.0
2017-Sep-12 12:30N 40°51' E 029°16'0 0.0
2017-Sep-12 11:59N 40°51' E 029°16'0 0.0
2017-Sep-12 11:30N 40°51' E 029°16'0 0.0
2017-Sep-12 11:00N 40°51' E 029°16'0 0.0
2017-Sep-12 10:30N 40°51' E 029°16'0 0.0
2017-Sep-12 10:00N 40°51' E 029°16'0 0.0
2017-Sep-12 09:30N 40°51' E 029°16'0 0.0
2017-Sep-12 09:00N 40°51' E 029°16'0 0.0
2017-Sep-12 08:30N 40°51' E 029°16'0 0.0
2017-Sep-12 08:00N 40°51' E 029°16'0 0.0
2017-Sep-12 07:30N 40°51' E 029°16'0 0.0
2017-Sep-12 07:00N 40°51' E 029°16'0 0.0
2017-Sep-12 06:30N 40°51' E 029°16'0 0.0
2017-Sep-12 06:00N 40°51' E 029°16'0 0.0
2017-Sep-12 05:30N 40°51' E 029°16'0 0.0
2017-Sep-12 05:00N 40°51' E 029°16'0 0.0
2017-Sep-12 04:30N 40°51' E 029°16'0 0.0
2017-Sep-12 04:00N 40°51' E 029°16'0 0.0
2017-Sep-12 03:30N 40°51' E 029°16'0 0.0
2017-Sep-12 03:00N 40°51' E 029°16'0 0.0
2017-Sep-12 02:30N 40°51' E 029°16'0 0.0
2017-Sep-12 02:00N 40°51' E 029°16'0 0.0
2017-Sep-12 01:30N 40°51' E 029°16'0 0.0
2017-Sep-12 01:00N 40°51' E 029°16'0 0.0
2017-Sep-12 00:30N 40°51' E 029°16'0 0.0
2017-Sep-12 00:00N 40°51' E 029°16'0 0.0
2017-Sep-11 23:30N 40°51' E 029°16'0 0.0
2017-Sep-11 23:00N 40°51' E 029°16'0 0.0
2017-Sep-11 22:30N 40°51' E 029°16'0 0.0
2017-Sep-11 22:00N 40°51' E 029°16'0 0.0
2017-Sep-11 21:30N 40°51' E 029°16'0 0.0
2017-Sep-11 21:00N 40°51' E 029°16'0 0.0
2017-Sep-11 20:30N 40°51' E 029°16'0 0.0
2017-Sep-11 20:00N 40°51' E 029°16'0 0.0
2017-Sep-11 19:30N 40°51' E 029°16'0 0.0
2017-Sep-11 19:00N 40°51' E 029°16'0 0.0
2017-Sep-11 18:30N 40°51' E 029°16'0 0.0
2017-Sep-11 18:00N 40°51' E 029°16'0 0.0
2017-Sep-11 17:30N 40°51' E 029°16'0 0.0
2017-Sep-11 17:00N 40°51' E 029°16'0 0.0
2017-Sep-11 16:30N 40°51' E 029°16'0 0.0
2017-Sep-11 16:00N 40°51' E 029°16'0 0.0
2017-Sep-11 15:30N 40°51' E 029°16'0 0.1
2017-Sep-11 15:00N 40°51' E 029°16'3 6.3
2017-Sep-11 14:30N 40°51' E 029°12'917.2
2017-Sep-11 14:00N 40°49' E 029°01'918.5
2017-Sep-11 13:30N 40°50' E 028°49'918.9
2017-Sep-11 13:00N 40°49' E 028°36'1019.2
2017-Sep-11 12:30N 40°48' E 028°24'1019.4
2017-Sep-11 12:00N 40°47' E 028°11'1019.4
2017-Sep-11 11:30N 40°45' E 027°58'918.8
2017-Sep-11 11:00N 40°44' E 027°46'7117.3
2017-Sep-11 06:54N 40°12' E 026°23'3015.0
2017-Sep-11 04:55N 39°52' E 025°54'818.5
2017-Sep-11 04:29N 39°45' E 025°49'19319.4
2017-Sep-10 18:30N 36°56' E 023°49'  

Dump ship's entire track history